createdAt,value
2023-05-15T00:00:06.429Z,990.19
2023-05-15T00:00:16.910Z,990.19
2023-05-15T00:00:27.437Z,990.19
2023-05-15T00:00:37.927Z,990.18
2023-05-15T00:00:48.456Z,990.18
2023-05-15T00:00:58.950Z,990.18
2023-05-15T00:01:09.469Z,990.17
2023-05-15T00:01:19.964Z,990.17
2023-05-15T00:01:30.483Z,990.17
2023-05-15T00:01:40.983Z,990.17
2023-05-15T00:01:51.495Z,990.17
2023-05-15T00:02:02.026Z,990.17
2023-05-15T00:02:12.539Z,990.17
2023-05-15T00:02:23.103Z,990.17
2023-05-15T00:02:33.621Z,990.17
2023-05-15T00:02:44.149Z,990.17
2023-05-15T00:02:54.604Z,990.17
2023-05-15T00:03:05.165Z,990.16
2023-05-15T00:03:15.641Z,990.16
2023-05-15T00:03:26.200Z,990.15
2023-05-15T00:03:36.718Z,990.15
2023-05-15T00:03:47.204Z,990.15
2023-05-15T00:03:57.617Z,990.14
2023-05-15T00:04:08.125Z,990.15
2023-05-15T00:04:18.669Z,990.14
2023-05-15T00:04:29.163Z,990.14
2023-05-15T00:04:39.698Z,990.14
2023-05-15T00:04:50.208Z,990.14
2023-05-15T00:05:00.753Z,990.14
2023-05-15T00:05:11.214Z,990.13
2023-05-15T00:05:21.785Z,990.13
2023-05-15T00:05:32.220Z,990.13
2023-05-15T00:05:42.707Z,990.13
2023-05-15T00:05:53.224Z,990.13
2023-05-15T00:06:03.726Z,990.13
2023-05-15T00:06:14.237Z,990.12
2023-05-15T00:06:24.740Z,990.12
2023-05-15T00:06:35.282Z,990.12
2023-05-15T00:06:45.771Z,990.12
2023-05-15T00:06:56.279Z,990.11
2023-05-15T00:07:06.782Z,990.11
2023-05-15T00:07:17.289Z,990.11
2023-05-15T00:07:27.805Z,990.11
2023-05-15T00:07:38.308Z,990.11
2023-05-15T00:07:48.815Z,990.11
2023-05-15T00:07:59.352Z,990.11
2023-05-15T00:08:09.840Z,990.11
2023-05-15T00:08:20.345Z,990.10
2023-05-15T00:08:30.860Z,990.10
2023-05-15T00:08:41.389Z,990.10
2023-05-15T00:08:51.900Z,990.10
2023-05-15T00:09:02.389Z,990.10
2023-05-15T00:09:12.900Z,990.10
2023-05-15T00:09:23.429Z,990.10
2023-05-15T00:09:33.915Z,990.10
2023-05-15T00:09:44.418Z,990.10
2023-05-15T00:09:54.926Z,990.10
2023-05-15T00:10:05.443Z,990.10
2023-05-15T00:10:15.947Z,990.10
2023-05-15T00:10:26.477Z,990.10
2023-05-15T00:10:37.379Z,990.10
2023-05-15T00:10:57.523Z,990.10
2023-05-15T00:11:01.964Z,990.10
2023-05-15T00:11:08.494Z,990.10
2023-05-15T00:11:19.002Z,990.10
2023-05-15T00:11:29.518Z,990.10
2023-05-15T00:11:40.030Z,990.10
2023-05-15T00:11:50.537Z,990.10
2023-05-15T00:12:01.054Z,990.10
2023-05-15T00:12:11.546Z,990.10
2023-05-15T00:12:22.057Z,990.10
2023-05-15T00:12:32.568Z,990.10
2023-05-15T00:12:43.078Z,990.11
2023-05-15T00:12:53.581Z,990.11
2023-05-15T00:13:04.147Z,990.11
2023-05-15T00:13:14.598Z,990.11
2023-05-15T00:13:25.111Z,990.11
2023-05-15T00:13:35.643Z,990.11
2023-05-15T00:13:46.121Z,990.11
2023-05-15T00:13:56.632Z,990.12
2023-05-15T00:14:07.144Z,990.12
2023-05-15T00:14:17.654Z,990.12
2023-05-15T00:14:28.158Z,990.12
2023-05-15T00:14:38.682Z,990.12
2023-05-15T00:14:49.187Z,990.12
2023-05-15T00:14:59.686Z,990.12
2023-05-15T00:15:10.236Z,990.12
2023-05-15T00:15:20.717Z,990.12
2023-05-15T00:15:31.220Z,990.12
2023-05-15T00:15:41.774Z,990.12
2023-05-15T00:15:52.268Z,990.12
2023-05-15T00:16:02.782Z,990.12
2023-05-15T00:16:13.314Z,990.12
2023-05-15T00:16:23.797Z,990.12
2023-05-15T00:16:34.347Z,990.11
2023-05-15T00:16:44.877Z,990.11
2023-05-15T00:16:55.321Z,990.11
2023-05-15T00:17:05.812Z,990.11
2023-05-15T00:17:16.309Z,990.11
2023-05-15T00:17:26.842Z,990.11
2023-05-15T00:17:37.358Z,990.10
2023-05-15T00:17:47.881Z,990.10
2023-05-15T00:17:58.408Z,990.10
2023-05-15T00:18:08.920Z,990.10
2023-05-15T00:18:19.413Z,990.09
2023-05-15T00:18:29.926Z,990.09
2023-05-15T00:18:40.419Z,990.09
2023-05-15T00:18:50.962Z,990.09
2023-05-15T00:19:01.490Z,990.09
2023-05-15T00:19:12.007Z,990.09
2023-05-15T00:19:22.480Z,990.09
2023-05-15T00:19:32.934Z,990.08
2023-05-15T00:19:43.465Z,990.08
2023-05-15T00:19:53.954Z,990.08
2023-05-15T00:20:04.502Z,990.08
2023-05-15T00:20:14.970Z,990.08
2023-05-15T00:20:25.492Z,990.08
2023-05-15T00:20:36.004Z,990.08
2023-05-15T00:20:46.503Z,990.08
2023-05-15T00:20:57.016Z,990.07
2023-05-15T00:21:07.513Z,990.07
2023-05-15T00:21:18.028Z,990.07
2023-05-15T00:21:28.530Z,990.08
2023-05-15T00:21:39.056Z,990.07
2023-05-15T00:21:49.556Z,990.07
2023-05-15T00:22:00.099Z,990.08
2023-05-15T00:22:10.589Z,990.07
2023-05-15T00:22:21.106Z,990.08
2023-05-15T00:22:31.590Z,990.07
2023-05-15T00:22:42.113Z,990.08
2023-05-15T00:22:52.646Z,990.07
2023-05-15T00:23:03.145Z,990.07
2023-05-15T00:23:13.641Z,990.07
2023-05-15T00:23:24.157Z,990.07
2023-05-15T00:23:34.670Z,990.07
2023-05-15T00:23:45.168Z,990.07
2023-05-15T00:23:55.674Z,990.07
2023-05-15T00:24:06.189Z,990.07
2023-05-15T00:24:16.703Z,990.07
2023-05-15T00:24:27.204Z,990.07
2023-05-15T00:24:37.708Z,990.07
2023-05-15T00:24:48.218Z,990.07
2023-05-15T00:24:58.754Z,990.07
2023-05-15T00:25:09.233Z,990.07
2023-05-15T00:25:19.760Z,990.07
2023-05-15T00:25:30.255Z,990.07
2023-05-15T00:25:40.769Z,990.06
2023-05-15T00:25:51.283Z,990.06
2023-05-15T00:26:01.809Z,990.06
2023-05-15T00:26:12.298Z,990.06
2023-05-15T00:26:22.814Z,990.06
2023-05-15T00:26:33.324Z,990.05
2023-05-15T00:26:43.824Z,990.05
2023-05-15T00:26:54.335Z,990.05
2023-05-15T00:27:04.843Z,990.05
2023-05-15T00:27:15.362Z,990.05
2023-05-15T00:27:25.921Z,990.04
2023-05-15T00:27:36.374Z,990.04
2023-05-15T00:27:46.879Z,990.04
2023-05-15T00:27:57.428Z,990.04
2023-05-15T00:28:07.928Z,990.03
2023-05-15T00:28:18.410Z,990.03
2023-05-15T00:28:28.923Z,990.03
2023-05-15T00:28:39.441Z,990.03
2023-05-15T00:28:49.938Z,990.03
2023-05-15T00:29:00.455Z,990.03
2023-05-15T00:29:10.957Z,990.02
2023-05-15T00:29:21.475Z,990.02
2023-05-15T00:29:31.981Z,990.02
2023-05-15T00:29:42.499Z,990.02
2023-05-15T00:29:53.049Z,990.02
2023-05-15T00:30:03.522Z,990.02
2023-05-15T00:30:14.045Z,990.02
2023-05-15T00:30:24.527Z,990.02
2023-05-15T00:30:35.036Z,990.01
2023-05-15T00:30:45.585Z,990.02
2023-05-15T00:30:56.093Z,990.01
2023-05-15T00:31:06.576Z,990.01
2023-05-15T00:31:17.160Z,990.01
2023-05-15T00:31:27.661Z,990.01
2023-05-15T00:31:38.126Z,990.01
2023-05-15T00:31:48.756Z,990.01
2023-05-15T00:31:59.160Z,990.00
2023-05-15T00:32:09.614Z,990.00
2023-05-15T00:32:20.117Z,990.00
2023-05-15T00:32:30.663Z,990.00
2023-05-15T00:32:41.176Z,990.00
2023-05-15T00:32:51.675Z,990.00
2023-05-15T00:33:02.171Z,990.00
2023-05-15T00:33:12.668Z,990.00
2023-05-15T00:33:23.169Z,989.99
2023-05-15T00:33:33.685Z,989.99
2023-05-15T00:33:44.180Z,989.99
2023-05-15T00:33:54.719Z,989.99
2023-05-15T00:34:05.202Z,989.98
2023-05-15T00:34:15.717Z,989.98
2023-05-15T00:34:26.212Z,989.97
2023-05-15T00:34:36.720Z,989.97
2023-05-15T00:34:47.231Z,989.97
2023-05-15T00:34:57.761Z,989.97
2023-05-15T00:35:08.245Z,989.97
2023-05-15T00:35:18.757Z,989.96
2023-05-15T00:35:29.269Z,989.96
2023-05-15T00:35:39.806Z,989.96
2023-05-15T00:35:50.272Z,989.96
2023-05-15T00:36:00.784Z,989.95
2023-05-15T00:36:11.296Z,989.95
2023-05-15T00:36:21.802Z,989.95
2023-05-15T00:36:32.322Z,989.94
2023-05-15T00:36:42.815Z,989.94
2023-05-15T00:36:53.336Z,989.94
2023-05-15T00:37:03.850Z,989.94
2023-05-15T00:37:14.342Z,989.94
2023-05-15T00:37:24.862Z,989.94
2023-05-15T00:37:35.371Z,989.94
2023-05-15T00:37:45.863Z,989.94
2023-05-15T00:37:56.377Z,989.94
2023-05-15T00:38:06.896Z,989.93
2023-05-15T00:38:17.402Z,989.94
2023-05-15T00:38:27.900Z,989.94
2023-05-15T00:38:38.408Z,989.94
2023-05-15T00:38:48.928Z,989.94
2023-05-15T00:38:59.433Z,989.94
2023-05-15T00:39:09.939Z,989.94
2023-05-15T00:39:20.446Z,989.94
2023-05-15T00:39:30.956Z,989.93
2023-05-15T00:39:41.466Z,989.93
2023-05-15T00:39:51.975Z,989.93
2023-05-15T00:40:02.498Z,989.93
2023-05-15T00:40:12.998Z,989.93
2023-05-15T00:40:23.502Z,989.93
2023-05-15T00:40:34.027Z,989.93
2023-05-15T00:40:44.559Z,989.93
2023-05-15T00:40:55.032Z,989.93
2023-05-15T00:41:05.539Z,989.93
2023-05-15T00:41:16.056Z,989.93
2023-05-15T00:41:26.551Z,989.93
2023-05-15T00:41:37.086Z,989.93
2023-05-15T00:41:47.601Z,989.93
2023-05-15T00:42:00.072Z,989.93
2023-05-15T00:42:08.596Z,989.93
2023-05-15T00:42:19.111Z,989.93
2023-05-15T00:42:29.598Z,989.93
2023-05-15T00:42:40.116Z,989.93
2023-05-15T00:42:50.619Z,989.93
2023-05-15T00:43:01.139Z,989.93
2023-05-15T00:43:11.650Z,989.93
2023-05-15T00:43:22.149Z,989.93
2023-05-15T00:43:32.653Z,989.93
2023-05-15T00:43:43.165Z,989.93
2023-05-15T00:43:53.662Z,989.93
2023-05-15T00:44:04.184Z,989.94
2023-05-15T00:44:14.681Z,989.94
2023-05-15T00:44:25.217Z,989.94
2023-05-15T00:44:35.695Z,989.94
2023-05-15T00:44:46.211Z,989.94
2023-05-15T00:44:56.725Z,989.94
2023-05-15T00:45:07.233Z,989.94
2023-05-15T00:45:17.727Z,989.94
2023-05-15T00:45:28.250Z,989.94
2023-05-15T00:45:38.761Z,989.93
2023-05-15T00:45:49.275Z,989.93
2023-05-15T00:45:59.765Z,989.93
2023-05-15T00:46:10.278Z,989.93
2023-05-15T00:46:20.836Z,989.93
2023-05-15T00:46:31.306Z,989.93
2023-05-15T00:46:41.826Z,989.92
2023-05-15T00:46:52.351Z,989.92
2023-05-15T00:47:02.883Z,989.92
2023-05-15T00:47:13.434Z,989.92
2023-05-15T00:47:23.872Z,989.92
2023-05-15T00:47:34.354Z,989.92
2023-05-15T00:47:44.890Z,989.91
2023-05-15T00:47:55.387Z,989.91
2023-05-15T00:48:05.906Z,989.91
2023-05-15T00:48:16.380Z,989.91
2023-05-15T00:48:26.893Z,989.91
2023-05-15T00:48:37.398Z,989.91
2023-05-15T00:48:47.922Z,989.90
2023-05-15T00:48:58.416Z,989.90
2023-05-15T00:49:08.981Z,989.90
2023-05-15T00:49:19.459Z,989.90
2023-05-15T00:49:29.940Z,989.90
2023-05-15T00:49:40.444Z,989.90
2023-05-15T00:49:50.959Z,989.90
2023-05-15T00:50:01.476Z,989.89
2023-05-15T00:50:11.970Z,989.89
2023-05-15T00:50:22.481Z,989.90
2023-05-15T00:50:32.991Z,989.90
2023-05-15T00:50:43.501Z,989.90
2023-05-15T00:50:54.011Z,989.89
2023-05-15T00:51:04.518Z,989.90
2023-05-15T00:51:15.023Z,989.89
2023-05-15T00:51:25.522Z,989.89
2023-05-15T00:51:36.034Z,989.89
2023-05-15T00:51:46.553Z,989.89
2023-05-15T00:51:57.053Z,989.89
2023-05-15T00:52:07.555Z,989.89
2023-05-15T00:52:18.102Z,989.89
2023-05-15T00:52:28.572Z,989.89
2023-05-15T00:52:39.077Z,989.89
2023-05-15T00:52:49.582Z,989.89
2023-05-15T00:53:00.097Z,989.88
2023-05-15T00:53:10.703Z,989.89
2023-05-15T00:53:21.108Z,989.89
2023-05-15T00:53:31.626Z,989.88
2023-05-15T00:53:42.194Z,989.88
2023-05-15T00:53:52.768Z,989.89
2023-05-15T00:54:03.192Z,989.88
2023-05-15T00:54:13.677Z,989.89
2023-05-15T00:54:24.164Z,989.88
2023-05-15T00:54:34.659Z,989.88
2023-05-15T00:54:45.173Z,989.88
2023-05-15T00:54:55.681Z,989.88
2023-05-15T00:55:06.190Z,989.88
2023-05-15T00:55:16.706Z,989.87
2023-05-15T00:55:27.325Z,989.88
2023-05-15T00:55:37.714Z,989.87
2023-05-15T00:55:48.225Z,989.87
2023-05-15T00:55:58.728Z,989.87
2023-05-15T00:56:09.261Z,989.87
2023-05-15T00:56:19.746Z,989.87
2023-05-15T00:56:30.254Z,989.86
2023-05-15T00:56:40.768Z,989.86
2023-05-15T00:56:51.274Z,989.86
2023-05-15T00:57:01.783Z,989.86
2023-05-15T00:57:12.320Z,989.86
2023-05-15T00:57:22.799Z,989.86
2023-05-15T00:57:33.310Z,989.85
2023-05-15T00:57:43.822Z,989.85
2023-05-15T00:57:54.327Z,989.85
2023-05-15T00:58:04.829Z,989.86
2023-05-15T00:58:15.380Z,989.85
2023-05-15T00:58:25.859Z,989.85
2023-05-15T00:58:36.361Z,989.85
2023-05-15T00:58:46.885Z,989.85
2023-05-15T00:58:57.377Z,989.85
2023-05-15T00:59:07.886Z,989.86
2023-05-15T00:59:18.392Z,989.85
2023-05-15T00:59:28.944Z,989.85
2023-05-15T00:59:39.425Z,989.85
2023-05-15T00:59:49.915Z,989.85
2023-05-15T01:00:00.435Z,989.85
2023-05-15T01:00:10.938Z,989.85
2023-05-15T01:00:21.485Z,989.85
2023-05-15T01:00:32.125Z,989.85
2023-05-15T01:00:42.480Z,989.85
2023-05-15T01:00:53.046Z,989.85
2023-05-15T01:01:03.506Z,989.85
2023-05-15T01:01:14.156Z,989.85
2023-05-15T01:01:24.514Z,989.84
2023-05-15T01:01:35.093Z,989.84
2023-05-15T01:01:45.510Z,989.84
2023-05-15T01:01:56.069Z,989.84
2023-05-15T01:02:06.546Z,989.84
2023-05-15T01:02:17.092Z,989.83
2023-05-15T01:02:27.653Z,989.83
2023-05-15T01:02:38.194Z,989.83
2023-05-15T01:02:48.622Z,989.83
2023-05-15T01:02:59.140Z,989.83
2023-05-15T01:03:09.726Z,989.83
2023-05-15T01:03:20.159Z,989.83
2023-05-15T01:03:30.635Z,989.82
2023-05-15T01:03:41.160Z,989.83
2023-05-15T01:03:51.639Z,989.83
2023-05-15T01:04:02.191Z,989.82
2023-05-15T01:04:12.638Z,989.82
2023-05-15T01:04:23.142Z,989.82
2023-05-15T01:04:33.676Z,989.82
2023-05-15T01:04:44.164Z,989.82
2023-05-15T01:04:54.682Z,989.82
2023-05-15T01:05:05.188Z,989.82
2023-05-15T01:05:15.702Z,989.81
2023-05-15T01:05:26.477Z,989.81
2023-05-15T01:05:36.707Z,989.81
2023-05-15T01:05:47.216Z,989.81
2023-05-15T01:05:57.735Z,989.80
2023-05-15T01:06:08.231Z,989.80
2023-05-15T01:06:18.738Z,989.80
2023-05-15T01:06:29.243Z,989.80
2023-05-15T01:06:39.762Z,989.79
2023-05-15T01:06:50.274Z,989.79
2023-05-15T01:07:00.789Z,989.79
2023-05-15T01:07:11.285Z,989.79
2023-05-15T01:07:21.801Z,989.78
2023-05-15T01:07:32.315Z,989.78
2023-05-15T01:07:42.816Z,989.78
2023-05-15T01:07:53.321Z,989.78
2023-05-15T01:08:03.849Z,989.77
2023-05-15T01:08:14.371Z,989.77
2023-05-15T01:08:24.851Z,989.76
2023-05-15T01:08:35.354Z,989.76
2023-05-15T01:08:45.880Z,989.76
2023-05-15T01:08:56.381Z,989.75
2023-05-15T01:09:06.895Z,989.75
2023-05-15T01:09:17.391Z,989.75
2023-05-15T01:09:27.917Z,989.74
2023-05-15T01:09:38.445Z,989.74
2023-05-15T01:09:48.930Z,989.73
2023-05-15T01:09:59.435Z,989.73
2023-05-15T01:10:09.973Z,989.73
2023-05-15T01:10:20.446Z,989.73
2023-05-15T01:10:30.971Z,989.73
2023-05-15T01:10:41.473Z,989.72
2023-05-15T01:10:52.019Z,989.72
2023-05-15T01:11:02.487Z,989.72
2023-05-15T01:11:12.993Z,989.72
2023-05-15T01:11:23.496Z,989.72
2023-05-15T01:11:34.011Z,989.71
2023-05-15T01:11:44.518Z,989.72
2023-05-15T01:11:55.061Z,989.71
2023-05-15T01:12:05.533Z,989.71
2023-05-15T01:12:16.042Z,989.71
2023-05-15T01:12:26.553Z,989.72
2023-05-15T01:12:37.061Z,989.71
2023-05-15T01:12:47.586Z,989.71
2023-05-15T01:12:58.077Z,989.71
2023-05-15T01:13:08.597Z,989.71
2023-05-15T01:13:19.089Z,989.71
2023-05-15T01:13:29.604Z,989.71
2023-05-15T01:13:40.139Z,989.71
2023-05-15T01:13:50.618Z,989.71
2023-05-15T01:14:01.122Z,989.71
2023-05-15T01:14:11.637Z,989.70
2023-05-15T01:14:22.153Z,989.70
2023-05-15T01:14:32.652Z,989.70
2023-05-15T01:14:43.174Z,989.70
2023-05-15T01:14:53.662Z,989.70
2023-05-15T01:15:04.180Z,989.70
2023-05-15T01:15:14.683Z,989.70
2023-05-15T01:15:25.421Z,989.69
2023-05-15T01:15:35.697Z,989.69
2023-05-15T01:15:46.239Z,989.69
2023-05-15T01:15:56.739Z,989.69
2023-05-15T01:16:07.250Z,989.69
2023-05-15T01:16:17.734Z,989.69
2023-05-15T01:16:28.266Z,989.69
2023-05-15T01:16:38.748Z,989.69
2023-05-15T01:16:49.270Z,989.69
2023-05-15T01:16:59.754Z,989.69
2023-05-15T01:17:10.275Z,989.69
2023-05-15T01:17:20.777Z,989.69
2023-05-15T01:17:31.321Z,989.68
2023-05-15T01:17:41.848Z,989.68
2023-05-15T01:17:52.449Z,989.68
2023-05-15T01:18:02.852Z,989.68
2023-05-15T01:18:13.479Z,989.68
2023-05-15T01:18:24.025Z,989.68
2023-05-15T01:18:34.463Z,989.68
2023-05-15T01:18:44.887Z,989.68
2023-05-15T01:18:55.409Z,989.68
2023-05-15T01:19:05.921Z,989.68
2023-05-15T01:19:16.442Z,989.68
2023-05-15T01:19:26.958Z,989.68
2023-05-15T01:19:37.515Z,989.68
2023-05-15T01:19:48.083Z,989.68
2023-05-15T01:19:58.608Z,989.67
2023-05-15T01:20:08.902Z,989.68
2023-05-15T01:20:19.417Z,989.68
2023-05-15T01:20:29.924Z,989.67
2023-05-15T01:20:40.453Z,989.67
2023-05-15T01:20:50.940Z,989.67
2023-05-15T01:21:01.452Z,989.67
2023-05-15T01:21:11.965Z,989.67
2023-05-15T01:21:22.473Z,989.67
2023-05-15T01:21:32.985Z,989.67
2023-05-15T01:21:43.491Z,989.67
2023-05-15T01:21:53.997Z,989.67
2023-05-15T01:22:04.499Z,989.67
2023-05-15T01:22:15.006Z,989.66
2023-05-15T01:22:25.534Z,989.66
2023-05-15T01:22:36.038Z,989.66
2023-05-15T01:22:46.541Z,989.66
2023-05-15T01:22:57.056Z,989.66
2023-05-15T01:23:07.595Z,989.66
2023-05-15T01:23:18.107Z,989.65
2023-05-15T01:23:28.593Z,989.66
2023-05-15T01:23:39.100Z,989.65
2023-05-15T01:23:49.588Z,989.65
2023-05-15T01:24:00.166Z,989.65
2023-05-15T01:24:10.636Z,989.65
2023-05-15T01:24:21.114Z,989.64
2023-05-15T01:24:31.696Z,989.64
2023-05-15T01:24:42.142Z,989.64
2023-05-15T01:24:52.658Z,989.64
2023-05-15T01:25:03.161Z,989.64
2023-05-15T01:25:13.682Z,989.64
2023-05-15T01:25:24.417Z,989.64
2023-05-15T01:25:34.686Z,989.64
2023-05-15T01:25:45.192Z,989.64
2023-05-15T01:25:55.712Z,989.64
2023-05-15T01:26:06.238Z,989.64
2023-05-15T01:26:16.732Z,989.64
2023-05-15T01:26:27.238Z,989.64
2023-05-15T01:26:37.755Z,989.64
2023-05-15T01:26:48.261Z,989.64
2023-05-15T01:26:58.795Z,989.64
2023-05-15T01:27:09.282Z,989.64
2023-05-15T01:27:19.790Z,989.64
2023-05-15T01:27:30.288Z,989.64
2023-05-15T01:27:40.795Z,989.64
2023-05-15T01:27:51.303Z,989.65
2023-05-15T01:28:01.819Z,989.64
2023-05-15T01:28:12.348Z,989.65
2023-05-15T01:28:22.846Z,989.65
2023-05-15T01:28:33.334Z,989.65
2023-05-15T01:28:43.850Z,989.65
2023-05-15T01:28:54.365Z,989.65
2023-05-15T01:29:04.870Z,989.65
2023-05-15T01:29:15.379Z,989.66
2023-05-15T01:29:25.909Z,989.66
2023-05-15T01:29:36.392Z,989.66
2023-05-15T01:29:46.912Z,989.66
2023-05-15T01:29:57.421Z,989.66
2023-05-15T01:30:07.929Z,989.66
2023-05-15T01:30:18.427Z,989.66
2023-05-15T01:30:28.943Z,989.67
2023-05-15T01:30:39.465Z,989.67
2023-05-15T01:30:49.968Z,989.67
2023-05-15T01:31:00.465Z,989.67
2023-05-15T01:31:10.980Z,989.67
2023-05-15T01:31:21.494Z,989.67
2023-05-15T01:31:32.031Z,989.67
2023-05-15T01:31:42.546Z,989.68
2023-05-15T01:31:53.130Z,989.68
2023-05-15T01:32:03.537Z,989.68
2023-05-15T01:32:14.088Z,989.68
2023-05-15T01:32:24.649Z,989.67
2023-05-15T01:32:35.078Z,989.68
2023-05-15T01:32:45.656Z,989.68
2023-05-15T01:32:56.153Z,989.68
2023-05-15T01:33:06.679Z,989.68
2023-05-15T01:33:17.286Z,989.68
2023-05-15T01:33:27.597Z,989.68
2023-05-15T01:33:38.106Z,989.68
2023-05-15T01:33:48.619Z,989.68
2023-05-15T01:33:59.155Z,989.68
2023-05-15T01:34:09.639Z,989.68
2023-05-15T01:34:20.150Z,989.68
2023-05-15T01:34:30.659Z,989.68
2023-05-15T01:34:41.164Z,989.68
2023-05-15T01:34:51.683Z,989.68
2023-05-15T01:35:02.198Z,989.68
2023-05-15T01:35:12.747Z,989.68
2023-05-15T01:35:23.745Z,989.68
2023-05-15T01:35:33.719Z,989.68
2023-05-15T01:35:44.222Z,989.68
2023-05-15T01:35:54.731Z,989.69
2023-05-15T01:36:05.241Z,989.68
2023-05-15T01:36:15.759Z,989.68
2023-05-15T01:36:26.272Z,989.68
2023-05-15T01:36:36.781Z,989.68
2023-05-15T01:36:47.289Z,989.68
2023-05-15T01:36:57.806Z,989.68
2023-05-15T01:37:08.308Z,989.68
2023-05-15T01:37:18.828Z,989.68
2023-05-15T01:37:29.325Z,989.68
2023-05-15T01:37:39.844Z,989.68
2023-05-15T01:37:50.342Z,989.68
2023-05-15T01:38:00.862Z,989.68
2023-05-15T01:38:11.364Z,989.67
2023-05-15T01:38:21.915Z,989.67
2023-05-15T01:38:32.384Z,989.67
2023-05-15T01:38:42.889Z,989.67
2023-05-15T01:38:53.431Z,989.67
2023-05-15T01:39:03.907Z,989.66
2023-05-15T01:39:14.418Z,989.66
2023-05-15T01:39:24.922Z,989.66
2023-05-15T01:39:35.452Z,989.66
2023-05-15T01:39:45.947Z,989.66
2023-05-15T01:39:56.463Z,989.66
2023-05-15T01:40:06.961Z,989.66
2023-05-15T01:40:17.465Z,989.66
2023-05-15T01:40:27.975Z,989.66
2023-05-15T01:40:38.483Z,989.66
2023-05-15T01:40:48.990Z,989.66
2023-05-15T01:40:59.493Z,989.66
2023-05-15T01:41:10.011Z,989.66
2023-05-15T01:41:20.523Z,989.66
2023-05-15T01:41:31.052Z,989.66
2023-05-15T01:41:41.555Z,989.65
2023-05-15T01:41:52.052Z,989.66
2023-05-15T01:42:02.557Z,989.65
2023-05-15T01:42:13.062Z,989.65
2023-05-15T01:42:23.575Z,989.65
2023-05-15T01:42:34.081Z,989.65
2023-05-15T01:42:44.586Z,989.65
2023-05-15T01:42:55.091Z,989.65
2023-05-15T01:43:05.606Z,989.65
2023-05-15T01:43:16.105Z,989.65
2023-05-15T01:43:26.642Z,989.65
2023-05-15T01:43:37.129Z,989.65
2023-05-15T01:43:47.646Z,989.65
2023-05-15T01:43:58.169Z,989.65
2023-05-15T01:44:08.657Z,989.65
2023-05-15T01:44:19.166Z,989.65
2023-05-15T01:44:29.681Z,989.65
2023-05-15T01:44:40.180Z,989.65
2023-05-15T01:44:50.692Z,989.65
2023-05-15T01:45:01.198Z,989.65
2023-05-15T01:45:11.722Z,989.65
2023-05-15T01:45:22.418Z,989.64
2023-05-15T01:45:32.715Z,989.65
2023-05-15T01:45:43.239Z,989.64
2023-05-15T01:45:53.761Z,989.64
2023-05-15T01:46:04.299Z,989.64
2023-05-15T01:46:14.795Z,989.64
2023-05-15T01:46:25.305Z,989.64
2023-05-15T01:46:35.820Z,989.63
2023-05-15T01:46:46.375Z,989.63
2023-05-15T01:46:56.791Z,989.63
2023-05-15T01:47:07.299Z,989.63
2023-05-15T01:47:17.805Z,989.63
2023-05-15T01:47:28.337Z,989.62
2023-05-15T01:47:38.886Z,989.62
2023-05-15T01:47:49.347Z,989.62
2023-05-15T01:47:59.898Z,989.62
2023-05-15T01:48:10.339Z,989.61
2023-05-15T01:48:20.849Z,989.61
2023-05-15T01:48:31.364Z,989.61
2023-05-15T01:48:41.872Z,989.61
2023-05-15T01:48:52.381Z,989.61
2023-05-15T01:49:02.901Z,989.61
2023-05-15T01:49:13.445Z,989.61
2023-05-15T01:49:23.907Z,989.61
2023-05-15T01:49:34.414Z,989.61
2023-05-15T01:49:44.915Z,989.61
2023-05-15T01:49:55.424Z,989.61
2023-05-15T01:50:05.943Z,989.61
2023-05-15T01:50:16.453Z,989.61
2023-05-15T01:50:26.974Z,989.61
2023-05-15T01:50:37.460Z,989.61
2023-05-15T01:50:47.988Z,989.61
2023-05-15T01:50:58.475Z,989.61
2023-05-15T01:51:08.977Z,989.62
2023-05-15T01:51:19.490Z,989.62
2023-05-15T01:51:29.997Z,989.62
2023-05-15T01:51:40.505Z,989.62
2023-05-15T01:51:51.015Z,989.63
2023-05-15T01:52:01.519Z,989.63
2023-05-15T01:52:12.028Z,989.64
2023-05-15T01:52:22.530Z,989.64
2023-05-15T01:52:33.038Z,989.64
2023-05-15T01:52:43.548Z,989.64
2023-05-15T01:52:54.054Z,989.65
2023-05-15T01:53:04.571Z,989.65
2023-05-15T01:53:15.070Z,989.65
2023-05-15T01:53:25.603Z,989.65
2023-05-15T01:53:36.107Z,989.66
2023-05-15T01:53:46.596Z,989.66
2023-05-15T01:53:57.096Z,989.66
2023-05-15T01:54:07.604Z,989.66
2023-05-15T01:54:18.120Z,989.66
2023-05-15T01:54:28.627Z,989.66
2023-05-15T01:54:39.126Z,989.66
2023-05-15T01:54:49.656Z,989.67
2023-05-15T01:55:00.159Z,989.67
2023-05-15T01:55:10.651Z,989.67
2023-05-15T01:55:21.156Z,989.67
2023-05-15T01:55:31.670Z,989.67
2023-05-15T01:55:42.173Z,989.67
2023-05-15T01:55:52.688Z,989.68
2023-05-15T01:56:03.185Z,989.67
2023-05-15T01:56:13.701Z,989.67
2023-05-15T01:56:24.209Z,989.67
2023-05-15T01:56:34.705Z,989.68
2023-05-15T01:56:45.249Z,989.67
2023-05-15T01:56:55.725Z,989.67
2023-05-15T01:57:06.229Z,989.67
2023-05-15T01:57:16.738Z,989.67
2023-05-15T01:57:27.240Z,989.67
2023-05-15T01:57:37.749Z,989.66
2023-05-15T01:57:48.254Z,989.67
2023-05-15T01:57:58.773Z,989.67
2023-05-15T01:58:09.299Z,989.67
2023-05-15T01:58:19.776Z,989.67
2023-05-15T01:58:30.282Z,989.66
2023-05-15T01:58:40.795Z,989.67
2023-05-15T01:58:51.310Z,989.66
2023-05-15T01:59:01.825Z,989.66
2023-05-15T01:59:12.332Z,989.66
2023-05-15T01:59:22.831Z,989.65
2023-05-15T01:59:33.336Z,989.65
2023-05-15T01:59:44.705Z,989.65
2023-05-15T01:59:54.352Z,989.65
2023-05-15T02:00:04.850Z,989.64
2023-05-15T02:00:15.362Z,989.65
2023-05-15T02:00:25.872Z,989.64
2023-05-15T02:00:36.368Z,989.64
2023-05-15T02:00:46.893Z,989.63
2023-05-15T02:00:57.397Z,989.63
2023-05-15T02:01:07.910Z,989.63
2023-05-15T02:01:18.453Z,989.63
2023-05-15T02:01:28.938Z,989.63
2023-05-15T02:01:39.433Z,989.62
2023-05-15T02:01:49.965Z,989.62
2023-05-15T02:02:00.476Z,989.62
2023-05-15T02:02:11.010Z,989.62
2023-05-15T02:02:21.474Z,989.61
2023-05-15T02:02:32.029Z,989.61
2023-05-15T02:02:42.595Z,989.61
2023-05-15T02:02:53.065Z,989.60
2023-05-15T02:03:03.590Z,989.60
2023-05-15T02:03:14.077Z,989.60
2023-05-15T02:03:24.636Z,989.60
2023-05-15T02:03:35.069Z,989.59
2023-05-15T02:03:45.589Z,989.59
2023-05-15T02:03:56.152Z,989.58
2023-05-15T02:04:06.577Z,989.58
2023-05-15T02:04:17.058Z,989.58
2023-05-15T02:04:27.556Z,989.57
2023-05-15T02:04:38.080Z,989.57
2023-05-15T02:06:05.151Z,989.54
2023-05-15T02:06:05.491Z,989.53
2023-05-15T02:06:16.253Z,989.53
2023-05-15T02:06:26.758Z,989.53
2023-05-15T02:06:37.281Z,989.52
2023-05-15T02:06:47.778Z,989.52
2023-05-15T02:07:08.791Z,989.51
2023-05-15T02:07:19.309Z,989.50
2023-05-15T02:07:29.828Z,989.50
2023-05-15T02:07:40.328Z,989.50
2023-05-15T02:07:50.855Z,989.49
2023-05-15T02:08:01.348Z,989.49
2023-05-15T02:08:11.856Z,989.49
2023-05-15T02:08:22.375Z,989.49
2023-05-15T02:08:32.932Z,989.49
2023-05-15T02:08:43.390Z,989.48
2023-05-15T02:08:53.903Z,989.48
2023-05-15T02:09:04.413Z,989.48
2023-05-15T02:09:14.911Z,989.48
2023-05-15T02:09:25.450Z,989.48
2023-05-15T02:09:35.952Z,989.48
2023-05-15T02:09:46.475Z,989.48
2023-05-15T02:09:56.960Z,989.47
2023-05-15T02:10:07.474Z,989.48
2023-05-15T02:10:18.004Z,989.48
2023-05-15T02:10:28.492Z,989.47
2023-05-15T02:10:38.999Z,989.48
2023-05-15T02:10:49.529Z,989.48
2023-05-15T02:11:00.024Z,989.47
2023-05-15T02:11:10.542Z,989.48
2023-05-15T02:11:21.046Z,989.48
2023-05-15T02:11:31.560Z,989.48
2023-05-15T02:11:42.067Z,989.48
2023-05-15T02:11:52.588Z,989.48
2023-05-15T02:12:03.101Z,989.48
2023-05-15T02:12:13.608Z,989.48
2023-05-15T02:12:24.115Z,989.48